createdAt,value
2022-09-12T00:01:04.564Z,100252.97
2022-09-12T00:03:53.820Z,100250.59
2022-09-12T00:06:43.224Z,100247.28
2022-09-12T00:09:33.007Z,100245.81
2022-09-12T00:12:21.466Z,100249.19
2022-09-12T00:15:11.268Z,100241.31
2022-09-12T00:17:59.699Z,100241.41
2022-09-12T00:20:48.532Z,100237.91
2022-09-12T00:23:37.000Z,100240.44
2022-09-12T00:26:26.948Z,100239.50
2022-09-12T00:29:17.186Z,100239.84
2022-09-12T00:32:05.790Z,100228.00
2022-09-12T00:34:54.203Z,100229.50
2022-09-12T00:37:42.670Z,100232.69
2022-09-12T00:40:31.112Z,100229.00
2022-09-12T00:46:45.492Z,100224.50
2022-09-12T00:49:35.615Z,100211.38
2022-09-12T00:52:28.034Z,100213.47
2022-09-12T00:55:18.393Z,100211.09
2022-09-12T00:58:10.592Z,100202.59
2022-09-12T01:00:59.995Z,100198.72
2022-09-12T01:03:49.883Z,100200.59
2022-09-12T01:06:41.218Z,100195.94
2022-09-12T01:09:29.660Z,100186.78
2022-09-12T01:12:18.698Z,100203.25
2022-09-12T01:15:07.947Z,100179.16
2022-09-12T01:18:08.702Z,100204.72
2022-09-12T01:21:09.835Z,100199.41
2022-09-12T01:24:24.779Z,100194.00
2022-09-12T01:27:39.210Z,100193.44
2022-09-12T01:30:43.691Z,100202.41
2022-09-12T01:33:52.366Z,100196.88
2022-09-12T01:36:48.504Z,100180.31
2022-09-12T01:39:42.319Z,100179.47
2022-09-12T01:42:35.001Z,100175.59
2022-09-12T01:45:29.121Z,100181.38
2022-09-12T01:48:21.240Z,100160.72
2022-09-12T01:51:14.811Z,100180.34
2022-09-12T01:54:07.819Z,100183.47
2022-09-12T01:56:58.398Z,100183.53
2022-09-12T01:59:49.563Z,100174.25
2022-09-12T02:02:40.492Z,100174.47
2022-09-12T02:05:33.655Z,100164.53
2022-09-12T02:08:27.095Z,100164.00
2022-09-12T02:11:15.548Z,100159.41
2022-09-12T02:14:07.294Z,100148.41
2022-09-12T02:16:59.767Z,100164.81
2022-09-12T02:19:51.534Z,100156.72
2022-09-12T02:22:42.701Z,100155.59
2022-09-12T02:25:31.651Z,100151.50
2022-09-12T02:28:24.536Z,100154.19
2022-09-12T02:31:18.268Z,100146.78
2022-09-12T02:34:11.707Z,100148.03
2022-09-12T02:37:07.518Z,100149.09
2022-09-12T02:39:57.797Z,100147.22
2022-09-12T02:42:46.609Z,100141.88
2022-09-12T02:45:35.922Z,100146.63
2022-09-12T02:48:27.553Z,100143.75
2022-09-12T02:51:18.290Z,100145.03
2022-09-12T02:54:10.350Z,100140.91
2022-09-12T02:57:00.308Z,100143.75
2022-09-12T02:59:49.636Z,100141.75
2022-09-12T03:02:53.907Z,100136.03
2022-09-12T03:05:48.235Z,100017.63
2022-09-12T03:08:51.272Z,100133.69
2022-09-12T03:12:03.931Z,100143.59
2022-09-12T03:15:11.470Z,100136.84
2022-09-12T03:18:07.466Z,100073.91
2022-09-12T03:21:03.327Z,100130.34
2022-09-12T03:24:03.654Z,100129.53
2022-09-12T03:26:56.215Z,100139.06
2022-09-12T03:29:47.800Z,100134.88
2022-09-12T03:32:44.234Z,100139.88
2022-09-12T03:35:32.681Z,100139.03
2022-09-12T03:38:21.287Z,100140.19
2022-09-12T03:41:09.729Z,100138.25
2022-09-12T03:43:58.157Z,100142.41
2022-09-12T03:46:48.035Z,100144.00
2022-09-12T03:49:36.435Z,100122.75
2022-09-12T03:52:25.025Z,100136.56
2022-09-12T03:55:13.443Z,100136.47
2022-09-12T03:58:01.912Z,100135.00
2022-09-12T04:00:50.572Z,100136.47
2022-09-12T04:03:41.082Z,100141.00
2022-09-12T04:06:29.711Z,100133.00
2022-09-12T04:09:18.188Z,100141.06
2022-09-12T04:12:07.922Z,100138.94
2022-09-12T04:14:56.356Z,100134.19
2022-09-12T04:17:44.876Z,100142.25
2022-09-12T04:20:34.655Z,100133.00
2022-09-12T04:23:23.188Z,100120.41
2022-09-12T04:26:13.611Z,100136.63
2022-09-12T04:29:02.060Z,100135.69
2022-09-12T04:31:50.540Z,100105.78
2022-09-12T04:34:39.114Z,100134.84
2022-09-12T04:37:28.922Z,100118.31
2022-09-12T04:40:17.390Z,100123.63
2022-09-12T04:43:08.458Z,100117.22
2022-09-12T04:46:06.588Z,100083.34
2022-09-12T04:48:57.114Z,100119.53
2022-09-12T04:51:46.018Z,100102.50
2022-09-12T04:54:35.848Z,100113.00
2022-09-12T04:57:24.286Z,100113.84
2022-09-12T05:00:14.588Z,100122.25
2022-09-12T05:03:03.048Z,100128.28
2022-09-12T05:05:55.861Z,100130.75
2022-09-12T05:08:44.945Z,100124.28
2022-09-12T05:12:02.484Z,100126.31
2022-09-12T05:14:46.543Z,100129.44
2022-09-12T05:17:35.390Z,100130.09
2022-09-12T05:20:23.854Z,100136.72
2022-09-12T05:23:12.287Z,100132.97
2022-09-12T05:26:01.754Z,100132.59
2022-09-12T05:28:52.201Z,100132.84
2022-09-12T05:31:40.816Z,100132.13
2022-09-12T05:34:29.287Z,100134.97
2022-09-12T05:37:17.760Z,100133.88
2022-09-12T05:40:08.556Z,100136.41
2022-09-12T05:42:57.538Z,100142.94
2022-09-12T05:45:47.436Z,100139.34
2022-09-12T05:48:36.832Z,100136.59
2022-09-12T05:51:26.819Z,100137.56
2022-09-12T05:54:17.998Z,100136.66
2022-09-12T05:57:06.491Z,100132.53
2022-09-12T05:59:54.924Z,100138.53
2022-09-12T06:02:44.682Z,100136.34
2022-09-12T06:05:33.996Z,100134.44
2022-09-12T06:08:22.456Z,100140.97
2022-09-12T06:11:12.930Z,100124.84
2022-09-12T06:14:01.889Z,100146.22
2022-09-12T06:16:50.457Z,100148.88
2022-09-12T06:19:40.290Z,100146.28
2022-09-12T06:22:28.708Z,100145.59
2022-09-12T06:25:17.233Z,100147.22
2022-09-12T06:28:05.659Z,100148.88
2022-09-12T06:30:54.422Z,100152.59
2022-09-12T06:33:44.584Z,100146.19
2022-09-12T06:36:36.219Z,100143.66
2022-09-12T06:39:24.743Z,100146.09
2022-09-12T06:42:14.856Z,100150.59
2022-09-12T06:45:03.339Z,100143.13
2022-09-12T06:47:51.772Z,100132.22
2022-09-12T06:50:43.863Z,100140.94
2022-09-12T06:53:34.699Z,100135.50
2022-09-12T06:56:24.557Z,100142.22
2022-09-12T06:59:13.038Z,100140.31
2022-09-12T07:02:01.542Z,100150.47
2022-09-12T07:04:51.725Z,100149.03
2022-09-12T07:07:40.224Z,100144.88
2022-09-12T07:10:30.905Z,100147.13
2022-09-12T07:13:19.855Z,100142.53
2022-09-12T07:16:08.665Z,100144.13
2022-09-12T07:18:58.772Z,100143.06
2022-09-12T07:21:47.229Z,100147.88
2022-09-12T07:24:35.842Z,100151.09
2022-09-12T07:27:25.677Z,100154.06
2022-09-12T07:30:14.123Z,100161.44
2022-09-12T07:33:02.617Z,100160.66
2022-09-12T07:35:53.249Z,100160.25
2022-09-12T07:38:42.379Z,100163.03
2022-09-12T07:41:33.673Z,100157.19
2022-09-12T07:44:23.523Z,100151.63
2022-09-12T07:47:11.990Z,100150.59
2022-09-12T07:50:00.608Z,100150.59
2022-09-12T07:52:49.073Z,100142.72
2022-09-12T07:55:37.528Z,100140.00
2022-09-12T07:58:26.674Z,100142.75
2022-09-12T08:01:17.834Z,100137.38
2022-09-12T08:04:06.379Z,100141.72
2022-09-12T08:06:54.839Z,100124.53
2022-09-12T08:09:43.285Z,100151.53
2022-09-12T08:12:32.220Z,100146.09
2022-09-12T08:15:20.986Z,100139.19
2022-09-12T08:18:11.313Z,100156.28
2022-09-12T08:20:59.993Z,100154.03
2022-09-12T08:23:49.060Z,100155.28
2022-09-12T08:26:37.883Z,100159.47
2022-09-12T08:29:26.353Z,100162.59
2022-09-12T08:32:14.819Z,100169.47
2022-09-12T08:35:05.324Z,100155.91
2022-09-12T08:37:53.773Z,100160.78
2022-09-12T08:40:48.496Z,100152.78
2022-09-12T08:43:54.503Z,100154.66
2022-09-12T08:46:57.243Z,100144.28
2022-09-12T08:49:51.653Z,100143.56
2022-09-12T08:52:47.194Z,100144.22
2022-09-12T08:55:38.118Z,100151.66
2022-09-12T08:58:28.323Z,100137.44
2022-09-12T09:01:23.933Z,100142.78
2022-09-12T09:04:25.662Z,100141.94
2022-09-12T09:07:30.024Z,100137.81
2022-09-12T09:10:27.337Z,100125.34
2022-09-12T09:13:39.291Z,100137.66
2022-09-12T09:16:32.482Z,100130.38
2022-09-12T09:19:23.016Z,100131.91
2022-09-12T09:22:14.001Z,100136.38
2022-09-12T09:25:07.889Z,100135.50
2022-09-12T09:28:02.189Z,100142.31
2022-09-12T09:30:50.738Z,100142.38
2022-09-12T09:33:39.379Z,100143.47
2022-09-12T09:36:36.064Z,100143.06
2022-09-12T09:39:31.627Z,100127.69
2022-09-12T09:42:28.964Z,100137.28
2022-09-12T09:45:21.896Z,100135.31
2022-09-12T09:48:17.998Z,100128.22
2022-09-12T09:51:09.212Z,100135.47
2022-09-12T09:54:01.107Z,100124.94
2022-09-12T09:56:49.827Z,100132.34
2022-09-12T09:59:38.353Z,100109.44
2022-09-12T10:02:28.303Z,100135.75
2022-09-12T10:05:18.361Z,100132.25
2022-09-12T10:08:08.447Z,100132.91
2022-09-12T10:11:02.924Z,100135.03
2022-09-12T10:13:56.824Z,100125.84
2022-09-12T10:16:52.324Z,100117.91
2022-09-12T10:19:42.118Z,100115.56
2022-09-12T10:22:30.706Z,100107.53
2022-09-12T10:25:20.250Z,100110.31
2022-09-12T10:28:22.309Z,100100.06
2022-09-12T10:31:15.165Z,100105.59
2022-09-12T10:34:05.561Z,100100.94
2022-09-12T10:36:59.491Z,100101.09
2022-09-12T10:39:52.662Z,100099.88
2022-09-12T10:42:49.935Z,100096.50
2022-09-12T10:45:38.886Z,100092.47
2022-09-12T10:48:30.167Z,100090.84
2022-09-12T10:51:28.637Z,100093.16
2022-09-12T10:54:19.856Z,100087.38
2022-09-12T10:57:24.219Z,100080.53
2022-09-12T11:00:18.109Z,100063.59
2022-09-12T11:03:16.100Z,100074.69
2022-09-12T11:06:04.856Z,100072.69
2022-09-12T11:09:03.149Z,100065.13
2022-09-12T11:12:02.412Z,100072.34
2022-09-12T11:15:03.496Z,100071.53
2022-09-12T11:17:55.778Z,100062.66
2022-09-12T11:21:09.450Z,100065.72
2022-09-12T11:24:13.752Z,100051.66
2022-09-12T11:27:13.446Z,100053.06
2022-09-12T11:30:06.703Z,100047.09
2022-09-12T11:33:05.664Z,100057.72
2022-09-12T11:35:57.317Z,100048.28
2022-09-12T11:38:52.538Z,100052.63
2022-09-12T11:41:42.724Z,100042.31
2022-09-12T11:44:40.117Z,100037.53
2022-09-12T11:47:30.063Z,100020.88
2022-09-12T11:50:23.329Z,100038.19
2022-09-12T11:53:16.575Z,100032.03
2022-09-12T11:56:10.413Z,100035.31
2022-09-12T11:59:02.747Z,100031.19
2022-09-12T12:01:56.418Z,100026.91
2022-09-12T12:05:03.365Z,100015.00
2022-09-12T12:07:54.673Z,100012.59
2022-09-12T12:10:45.498Z,100012.22
2022-09-12T12:13:35.883Z,99997.97
2022-09-12T12:16:26.903Z,100012.81
2022-09-12T12:19:38.001Z,100010.13
2022-09-12T12:22:26.974Z,100000.88
2022-09-12T12:25:29.957Z,100003.59
2022-09-12T12:28:52.414Z,99995.81
2022-09-12T12:32:14.269Z,99997.00
2022-09-12T12:35:40.468Z,99988.78
2022-09-12T12:38:30.459Z,99983.50
2022-09-12T12:41:43.879Z,99983.84
2022-09-12T12:44:51.206Z,99981.28
2022-09-12T12:47:42.804Z,99956.16
2022-09-12T12:50:31.970Z,99976.38
2022-09-12T12:53:24.789Z,99969.09
2022-09-12T12:56:29.268Z,99959.53
2022-09-12T12:59:21.278Z,99936.84
2022-09-12T13:02:20.947Z,99943.63
2022-09-12T13:05:18.685Z,99955.63
2022-09-12T13:08:10.107Z,99931.13
2022-09-12T13:11:02.958Z,99956.66
2022-09-12T13:13:52.939Z,99955.47
2022-09-12T13:16:54.392Z,99944.09
2022-09-12T13:19:43.000Z,99883.03
2022-09-12T13:22:41.693Z,99949.59
2022-09-12T13:25:31.966Z,99933.78
2022-09-12T13:28:21.863Z,99943.16
2022-09-12T13:31:16.913Z,99939.22
2022-09-12T13:34:06.813Z,99918.53
2022-09-12T13:37:24.487Z,99907.53
2022-09-12T13:40:25.017Z,99906.44
2022-09-12T13:43:15.899Z,99892.47
2022-09-12T13:46:08.057Z,99917.03
2022-09-12T13:48:56.775Z,99919.97
2022-09-12T13:51:45.312Z,99911.19
2022-09-12T13:54:37.856Z,99911.69
2022-09-12T13:57:31.648Z,99910.22
2022-09-12T14:00:22.211Z,99907.94
2022-09-12T14:03:44.639Z,99902.25
2022-09-12T14:06:38.505Z,99897.56
2022-09-12T14:09:29.086Z,99890.41
2022-09-12T14:12:25.403Z,99891.50
2022-09-12T14:15:18.566Z,99897.66
2022-09-12T14:18:08.833Z,99887.63
2022-09-12T14:21:03.680Z,99896.50
2022-09-12T14:23:52.274Z,99882.06
2022-09-12T14:26:41.738Z,99877.34
2022-09-12T14:29:30.313Z,99870.22
2022-09-12T14:32:24.015Z,99872.03
2022-09-12T14:35:20.278Z,99873.84
2022-09-12T14:38:20.509Z,99880.31
2022-09-12T14:41:10.701Z,99866.44
2022-09-12T14:44:01.170Z,99850.19
2022-09-12T14:46:50.067Z,99868.00
2022-09-12T14:49:39.047Z,99780.72
2022-09-12T14:52:30.920Z,99873.50
2022-09-12T14:55:29.498Z,99857.44
2022-09-12T14:58:26.171Z,99817.66
2022-09-12T15:01:27.826Z,99732.00
2022-09-12T15:04:49.008Z,99848.16
2022-09-12T15:07:40.382Z,99839.56
2022-09-12T15:10:33.007Z,99701.84
2022-09-12T15:13:23.586Z,99841.84
2022-09-12T15:16:13.007Z,99816.53
2022-09-12T15:19:01.869Z,99718.19
2022-09-12T15:21:50.600Z,99825.06
2022-09-12T15:24:39.896Z,99828.38
2022-09-12T15:27:30.066Z,99818.84
2022-09-12T15:30:19.002Z,99810.09
2022-09-12T15:33:07.680Z,99789.75
2022-09-12T15:35:56.254Z,99819.75
2022-09-12T15:38:45.483Z,99822.66
2022-09-12T15:41:36.798Z,99797.25
2022-09-12T15:44:26.698Z,99794.50
2022-09-12T15:47:18.118Z,99816.03
2022-09-12T15:50:09.305Z,99812.41
2022-09-12T15:52:59.190Z,99801.19
2022-09-12T15:55:48.600Z,99771.41
2022-09-12T15:58:49.999Z,99807.56
2022-09-12T16:01:49.576Z,99806.75
2022-09-12T16:04:38.178Z,99810.81
2022-09-12T16:07:27.172Z,99800.56
2022-09-12T16:10:17.273Z,99794.13
2022-09-12T16:13:05.733Z,99797.19
2022-09-12T16:15:57.635Z,99794.81
2022-09-12T16:18:47.709Z,99795.81
2022-09-12T16:21:36.443Z,99789.84
2022-09-12T16:24:25.067Z,99787.03
2022-09-12T16:27:14.008Z,99797.66
2022-09-12T16:30:02.776Z,99793.47
2022-09-12T16:32:53.308Z,99796.53
2022-09-12T16:35:43.262Z,99786.28
2022-09-12T16:38:32.077Z,99750.47
2022-09-12T16:41:22.337Z,99783.59
2022-09-12T16:44:10.989Z,99766.84
2022-09-12T16:46:59.618Z,99781.38
2022-09-12T16:49:48.309Z,99782.56
2022-09-12T16:52:42.989Z,99782.19
2022-09-12T16:55:32.554Z,99787.38
2022-09-12T16:58:21.238Z,99767.97
2022-09-12T17:01:11.536Z,99778.34
2022-09-12T17:04:00.136Z,99777.94
2022-09-12T17:06:48.845Z,99656.38
2022-09-12T17:09:38.703Z,99767.78
2022-09-12T17:12:27.477Z,99781.00
2022-09-12T17:15:16.229Z,99775.94
2022-09-12T17:18:04.822Z,99770.53
2022-09-12T17:20:53.381Z,99780.19
2022-09-12T17:23:42.231Z,99772.44
2022-09-12T17:26:32.159Z,99773.34
2022-09-12T17:29:21.110Z,99773.03
2022-09-12T17:32:11.081Z,99779.91
2022-09-12T17:35:01.045Z,99771.75
2022-09-12T17:37:49.623Z,99778.72
2022-09-12T17:40:58.505Z,99781.34
2022-09-12T17:43:50.768Z,99782.28
2022-09-12T17:46:40.216Z,99764.91
2022-09-12T17:49:28.953Z,99781.97
2022-09-12T17:52:17.433Z,99785.47
2022-09-12T17:55:06.653Z,99785.34
2022-09-12T17:57:55.096Z,99782.97
2022-09-12T18:01:10.691Z,99783.94
2022-09-12T18:04:00.543Z,99782.78
2022-09-12T18:06:49.605Z,99768.78
2022-09-12T18:09:39.126Z,99780.84
2022-09-12T18:12:27.794Z,99793.75
2022-09-12T18:15:16.463Z,99685.09
2022-09-12T18:18:06.657Z,99755.53
2022-09-12T18:20:59.221Z,99759.38
2022-09-12T18:23:48.071Z,99771.66
2022-09-12T18:26:36.930Z,99779.09
2022-09-12T18:29:27.833Z,99780.22
2022-09-12T18:32:16.287Z,99787.88
2022-09-12T18:35:07.050Z,99651.16
2022-09-12T18:37:55.779Z,99791.75
2022-09-12T18:40:44.352Z,99775.75
2022-09-12T18:43:33.248Z,99802.72
2022-09-12T18:46:21.982Z,99791.03
2022-09-12T18:49:10.605Z,99791.03
2022-09-12T18:52:00.479Z,99777.97
2022-09-12T18:54:48.929Z,99792.13
2022-09-12T18:57:37.413Z,99787.78
2022-09-12T19:00:25.962Z,99798.38
2022-09-12T19:03:14.482Z,99804.88
2022-09-12T19:06:07.645Z,99797.53
2022-09-12T19:08:58.686Z,99801.34
2022-09-12T19:11:49.837Z,99794.22
2022-09-12T19:14:38.654Z,99804.47
2022-09-12T19:17:27.272Z,99794.66
2022-09-12T19:20:15.804Z,99796.25
2022-09-12T19:23:04.267Z,99786.94
2022-09-12T19:26:01.902Z,99794.78
2022-09-12T19:28:50.845Z,99761.50
2022-09-12T19:31:39.344Z,99780.28
2022-09-12T19:34:28.057Z,99760.00
2022-09-12T19:37:16.579Z,99781.22
2022-09-12T19:40:06.857Z,99791.28
2022-09-12T19:42:56.861Z,99791.50
2022-09-12T19:45:48.230Z,99785.75
2022-09-12T19:48:36.871Z,99786.56
2022-09-12T19:51:25.428Z,99774.31
2022-09-12T19:54:14.065Z,99763.69
2022-09-12T19:57:02.743Z,99773.97
2022-09-12T19:59:52.589Z,99774.75
2022-09-12T20:02:41.138Z,99775.25
2022-09-12T20:05:29.839Z,99768.50
2022-09-12T20:08:18.445Z,99765.13
2022-09-12T20:11:07.061Z,99769.22
2022-09-12T20:13:55.510Z,99765.44
2022-09-12T20:16:45.547Z,99751.56
2022-09-12T20:19:34.222Z,99740.06
2022-09-12T20:22:22.720Z,99760.91
2022-09-12T20:25:11.172Z,99763.78
2022-09-12T20:28:00.363Z,99698.03
2022-09-12T20:30:49.029Z,99756.56
2022-09-12T20:33:39.408Z,99743.13
2022-09-12T20:36:27.878Z,99749.56
2022-09-12T20:39:18.186Z,99741.16
2022-09-12T20:42:07.184Z,99744.09
2022-09-12T20:44:55.986Z,99730.16
2022-09-12T20:47:44.456Z,99738.97
2022-09-12T20:50:34.246Z,99733.81
2022-09-12T20:53:22.665Z,99739.22
2022-09-12T20:56:11.158Z,99748.53
2022-09-12T20:59:00.207Z,99745.47
2022-09-12T21:01:49.285Z,99756.16
2022-09-12T21:04:37.851Z,99753.44
2022-09-12T21:07:27.644Z,99751.56
2022-09-12T21:10:16.259Z,99747.41
2022-09-12T21:13:04.715Z,99724.84
2022-09-12T21:15:59.442Z,99731.25
2022-09-12T21:18:48.611Z,99620.75
2022-09-12T21:21:37.573Z,99741.66
2022-09-12T21:24:27.345Z,99734.28
2022-09-12T21:27:15.820Z,99735.81
2022-09-12T21:30:05.510Z,99727.84
2022-09-12T21:32:54.430Z,99711.00
2022-09-12T21:35:42.887Z,99725.63
2022-09-12T21:38:31.646Z,99731.66
2022-09-12T21:41:21.429Z,99717.28
2022-09-12T21:44:10.351Z,99723.34
2022-09-12T21:46:58.802Z,99714.63
2022-09-12T21:49:47.390Z,99721.94
2022-09-12T21:52:36.782Z,99685.13
2022-09-12T21:55:27.156Z,99688.00
2022-09-12T21:58:17.122Z,99704.59
2022-09-12T22:01:08.452Z,99698.28
2022-09-12T22:03:57.025Z,99707.22
2022-09-12T22:06:45.488Z,99702.38
2022-09-12T22:09:34.338Z,99675.03
2022-09-12T22:12:23.337Z,99705.09
2022-09-12T22:15:38.981Z,99704.28
2022-09-12T22:18:21.684Z,99695.53
2022-09-12T22:21:13.259Z,99702.53
2022-09-12T22:24:19.124Z,99703.53
2022-09-12T22:27:08.670Z,99704.78
2022-09-12T22:29:57.105Z,99681.03
2022-09-12T22:32:48.219Z,99702.59
2022-09-12T22:35:36.757Z,99709.34
2022-09-12T22:38:26.033Z,99708.84
2022-09-12T22:41:14.479Z,99715.88
2022-09-12T22:44:03.117Z,99706.09
2022-09-12T22:46:51.885Z,99702.34
2022-09-12T22:49:42.023Z,99708.00
2022-09-12T22:52:30.464Z,99698.13
2022-09-12T22:55:19.079Z,99699.25
2022-09-12T22:58:07.542Z,99699.34
2022-09-12T23:00:56.098Z,99690.06
2022-09-12T23:03:44.888Z,99689.91
2022-09-12T23:06:34.835Z,99683.88
2022-09-12T23:09:23.571Z,99696.06
2022-09-12T23:12:12.050Z,99700.00
2022-09-12T23:40:21.238Z,99670.72
2022-09-12T23:43:09.668Z,99674.56
2022-09-12T23:45:58.419Z,99685.03
2022-09-12T23:48:47.113Z,99696.31
2022-09-12T23:51:36.088Z,99649.47
2022-09-12T23:54:24.999Z,99678.88
2022-09-12T23:57:14.821Z,99690.84
